Terminal Aerodrome Forecast
Issued by NWS

Home | Current Version | Previous Version | Text Only | Print | Product List | Glossary On
Versions: 1 2 3 4 5 6 7 8 9 10 11 12 13 14 15 16 17 18 19 20 21 22 23 24
000
FTUS44 KJAN 211733
TAFHKS
TAF
KHKS 211733Z 2118/2218 16010KT P6SM BKN250
     FM220000 16006KT P6SM FEW100 OVC250
     FM221200 18005KT P6SM VCSH SCT060 OVC090=

USA.gov is the U.S. government's official web portal to all federal, state and local government web resources and services.